East Aurora, New York
Current Conditions -  °F | °C
As of 5:54 PM on Monday 20 Oct 2014 (Local Time) from KBUF Reporting Station
Light Rain Light Rain  
Wind Chill: 54°   Ceiling: 3600
Heat Index: 54°   Visibility: 9mi
Dew Point: 43°   Wind: 9mph
Humidity: 66%   Direction: 200°SSW
Pressure: 29.81"   Gusts: NA
Location:  42.77°N, 78.61°W
Report Text: KBUF 202154Z 20008KT 9SM -RA FEW027 BKN036 OVC055 12/06 A2981 RMK AO2 RAB40 SLP099 P0000 T01220061
Loading
Personal Weather Stations






























Interactive Weather Map New forecast layout! Learn more

10-Day Weather Forecast

Advertisements
Track Severe Weather on mobile